Time;durP1;ratioP1;P1;durP2;ratioP2;P2;SDS_P1;SDS_P2;PMS_P1;PMS_P2;Temp;Humidity;BMP_temperature;BMP_pressure;BME280_temperature;BME280_humidity;BME280_pressure;Samples;Min_cycle;Max_cycle;Signal;HPM_P1;HPM_P2
2022/05/07 00:00:34;;;;;;;17.48;10.55;;;13.00;99.90;;;10.18;100.00;101266.69;5041424;28;20131;-76
2022/05/07 00:03:03;;;;;;;16.10;11.23;;;13.00;99.90;;;10.14;100.00;101260.72;5058186;28;20119;-76
2022/05/07 00:05:31;;;;;;;17.60;10.82;;;12.90;99.90;;;10.12;100.00;101270.91;5063650;28;20066;-76
2022/05/07 00:07:58;;;;;;;18.65;11.98;;;13.00;99.90;;;10.04;100.00;101268.16;5072682;28;20094;-76
2022/05/07 00:10:26;;;;;;;17.60;12.20;;;12.90;99.90;;;10.01;100.00;101268.47;5059744;28;20394;-76
2022/05/07 00:12:53;;;;;;;18.08;11.23;;;12.80;99.90;;;9.94;100.00;101262.00;5034004;28;20038;-76
2022/05/07 00:15:21;;;;;;;18.65;11.80;;;12.80;99.90;;;9.86;100.00;101264.66;5042705;28;20045;-76
2022/05/07 00:18:03;;;;;;;16.08;11.38;;;12.80;99.90;;;9.90;100.00;101256.03;5042143;28;20037;-76
2022/05/07 00:20:33;;;;;;;18.30;11.98;;;12.70;99.90;;;9.93;100.00;101260.28;5048402;28;20045;-76
2022/05/07 00:23:01;;;;;;;17.50;11.50;;;12.80;99.90;;;9.87;100.00;101260.94;5056536;28;20049;-75
2022/05/07 00:25:30;;;;;;;17.42;11.95;;;12.70;99.90;;;9.89;100.00;101265.19;5052560;28;20043;-75
2022/05/07 00:27:57;;;;;;;17.80;11.52;;;12.70;99.90;;;9.90;100.00;101252.44;5050068;28;20490;-76
2022/05/07 00:30:24;;;;;;;17.15;12.48;;;12.70;99.90;;;9.87;100.00;101260.94;5051993;28;20048;-76
2022/05/07 00:32:51;;;;;;;19.00;11.68;;;12.60;99.90;;;9.82;100.00;101255.97;5050642;28;20111;-75
2022/05/07 00:35:19;;;;;;;17.23;11.73;;;12.60;99.90;;;9.82;100.00;101247.81;5049774;28;20060;-76
2022/05/07 00:37:47;;;;;;;16.98;11.48;;;12.60;99.90;;;9.88;100.00;101249.03;5053174;28;20063;-76
2022/05/07 00:40:15;;;;;;;17.30;11.73;;;12.60;99.90;;;9.78;100.00;101250.00;5062243;28;20044;-76
2022/05/07 00:42:42;;;;;;;17.42;11.32;;;12.60;99.90;;;9.69;100.00;101255.56;5050726;28;20052;-76
2022/05/07 00:45:10;;;;;;;18.48;12.68;;;12.60;99.90;;;9.63;100.00;101251.63;5050790;28;20041;-76
2022/05/07 00:47:38;;;;;;;19.02;13.18;;;12.60;99.90;;;9.67;100.00;101247.59;5044329;28;20091;-76
2022/05/07 00:52:54;;;;;;;18.92;12.18;;;12.50;99.90;;;9.69;100.00;101245.56;5050740;28;20045;-76
2022/05/07 00:55:23;;;;;;;18.65;12.10;;;12.50;99.90;;;9.62;100.00;101236.34;5049399;28;20049;-76
2022/05/07 00:57:51;;;;;;;17.23;12.48;;;12.50;99.90;;;9.58;100.00;101240.41;5043674;28;20080;-76
2022/05/07 01:00:19;;;;;;;19.15;12.25;;;12.50;99.90;;;9.56;100.00;101242.44;5047233;28;20095;-76
2022/05/07 01:02:47;;;;;;;17.10;11.45;;;12.50;99.90;;;9.55;100.00;101235.28;5031903;28;20053;-76
2022/05/07 01:05:14;;;;;;;15.70;11.00;;;12.50;99.90;;;9.58;100.00;101241.25;5037274;28;20033;-76
2022/05/07 01:07:45;;;;;;;17.52;11.13;;;12.40;99.90;;;9.51;100.00;101240.16;5049329;28;20047;-76
2022/05/07 01:10:15;;;;;;;17.48;11.32;;;12.50;99.90;;;9.48;100.00;101231.47;5050324;28;20422;-76
2022/05/07 01:12:42;;;;;;;16.55;10.95;;;12.40;99.90;;;9.44;100.00;101227.38;5048843;28;20041;-75
2022/05/07 01:15:11;;;;;;;17.77;11.55;;;12.30;99.90;;;9.43;100.00;101233.84;5054194;28;20045;-75
2022/05/07 01:17:40;;;;;;;19.17;10.70;;;12.30;99.90;;;9.46;100.00;101230.78;5043277;28;20492;-75
2022/05/07 01:20:14;;;;;;;16.40;11.57;;;12.30;99.90;;;9.48;100.00;101234.19;5049017;28;20424;-75
2022/05/07 01:22:45;;;;;;;17.17;11.38;;;12.30;99.90;;;9.44;100.00;101222.78;5046878;28;20046;-75
2022/05/07 01:25:14;;;;;;;18.45;11.35;;;12.30;99.90;;;9.40;100.00;101224.13;5046672;28;20041;-75
2022/05/07 01:27:42;;;;;;;17.88;12.18;;;12.20;99.90;;;9.38;100.00;101218.84;5048607;28;20111;-75
2022/05/07 01:30:10;;;;;;;17.10;12.13;;;12.30;99.90;;;9.34;100.00;101222.06;5049781;28;20037;-75
2022/05/07 01:32:37;;;;;;;19.88;12.00;;;12.20;99.90;;;9.32;100.00;101219.50;5052921;28;20140;-75
2022/05/07 01:35:07;;;;;;;18.88;11.63;;;12.20;99.90;;;9.27;100.00;101216.41;5065042;28;20044;-75
2022/05/07 01:37:34;;;;;;;20.15;12.82;;;12.20;99.90;;;9.26;100.00;101225.56;5044102;28;20076;-75
2022/05/07 01:40:03;;;;;;;16.35;11.15;;;12.20;99.90;;;9.31;100.00;101222.38;5029459;28;20099;-75
2022/05/07 01:42:31;;;;;;;19.02;11.88;;;12.10;99.90;;;9.27;100.00;101219.13;5039990;28;20756;-75
2022/05/07 01:44:59;;;;;;;18.73;12.38;;;12.10;99.90;;;9.25;100.00;101210.28;5047786;28;20048;-75
2022/05/07 01:50:11;;;;;;;17.02;12.25;;;12.10;99.90;;;9.27;100.00;101211.00;5056776;28;20136;-75
2022/05/07 01:52:38;;;;;;;19.52;12.35;;;12.00;99.90;;;9.23;100.00;101214.16;5048660;28;20041;-75
2022/05/07 01:55:08;;;;;;;19.33;12.52;;;12.00;99.90;;;9.15;100.00;101210.38;5048805;28;20084;-75
2022/05/07 01:57:36;;;;;;;18.42;12.38;;;12.00;99.90;;;9.17;100.00;101215.66;5049208;28;20079;-75
2022/05/07 02:00:05;;;;;;;18.17;12.25;;;12.00;99.90;;;9.11;100.00;101213.56;5045375;28;20045;-75
2022/05/07 02:02:39;;;;;;;18.02;12.30;;;12.00;99.90;;;9.07;100.00;101210.31;5031958;28;20081;-75
2022/05/07 02:05:12;;;;;;;16.95;12.35;;;11.90;99.90;;;9.07;100.00;101209.47;5045297;28;20049;-75
2022/05/07 02:07:40;;;;;;;16.45;12.07;;;11.90;99.90;;;9.09;100.00;101211.00;5040481;28;20417;-75
2022/05/07 02:10:10;;;;;;;19.17;13.18;;;11.90;99.90;;;9.12;100.00;101204.41;5056129;28;20052;-75
2022/05/07 02:12:37;;;;;;;21.38;11.65;;;11.90;99.90;;;9.10;100.00;101206.44;5045809;28;20067;-75
2022/05/07 02:15:06;;;;;;;17.77;12.48;;;11.90;99.90;;;9.07;100.00;101204.88;5048155;28;20045;-75
2022/05/07 02:17:35;;;;;;;19.35;11.88;;;11.90;99.90;;;9.09;100.00;101202.88;5048856;28;20139;-75
2022/05/07 02:20:03;;;;;;;15.82;11.43;;;11.90;99.90;;;9.05;100.00;101203.34;5044819;28;20486;-76
2022/05/07 02:22:30;;;;;;;17.42;12.30;;;11.80;99.90;;;9.02;100.00;101193.63;5039287;28;20095;-75
2022/05/07 02:24:58;;;;;;;17.55;12.57;;;11.80;99.90;;;9.00;100.00;101199.25;5048360;28;20057;-75
2022/05/07 02:27:27;;;;;;;19.73;12.70;;;11.80;99.90;;;9.02;100.00;101203.66;5059940;28;20045;-75
2022/05/07 02:29:58;;;;;;;20.10;12.77;;;11.80;99.90;;;9.00;100.00;101201.09;5039122;28;20580;-75
2022/05/07 02:32:27;;;;;;;19.30;12.43;;;11.80;99.90;;;8.91;100.00;101200.19;5029100;28;20103;-75
2022/05/07 02:34:54;;;;;;;17.40;12.10;;;11.70;99.90;;;8.89;100.00;101198.63;5047338;22;20045;-76
2022/05/07 02:37:28;;;;;;;23.23;13.90;;;11.70;99.90;;;8.89;100.00;101199.50;5010026;28;20145;-76
2022/05/07 02:39:56;;;;;;;20.23;12.90;;;11.70;99.90;;;8.87;100.00;101204.22;5015994;28;20057;-76
2022/05/07 02:42:39;;;;;;;22.92;14.13;;;11.70;99.90;;;8.87;100.00;101200.66;5026953;28;20489;-76
2022/05/07 02:45:19;;;;;;;19.88;14.30;;;11.70;99.90;;;8.87;100.00;101201.50;5004904;28;20057;-76
2022/05/07 02:47:53;;;;;;;22.70;14.48;;;11.60;99.90;;;8.91;100.00;101205.63;5005488;28;20061;-76
2022/05/07 02:50:22;;;;;;;21.02;14.38;;;11.60;99.90;;;8.84;100.00;101199.09;5023847;28;20141;-76
2022/05/07 02:52:50;;;;;;;22.02;14.38;;;11.60;99.90;;;8.81;100.00;101199.41;5009927;28;20498;-76
2022/05/07 02:55:17;;;;;;;23.92;15.05;;;11.60;99.90;;;8.79;100.00;101201.44;4991332;28;20125;-76
2022/05/07 02:57:51;;;;;;;21.25;15.25;;;11.60;99.90;;;8.77;100.00;101204.28;5000735;28;20600;-77
2022/05/07 03:00:21;;;;;;;24.48;14.63;;;11.60;99.90;;;8.79;100.00;101199.56;5008096;28;20045;-76
2022/05/07 03:02:48;;;;;;;21.40;14.88;;;11.60;99.90;;;8.79;100.00;101201.44;4990620;28;20130;-76
2022/05/07 03:05:15;;;;;;;20.27;14.65;;;11.60;99.90;;;8.81;100.00;101199.41;4990374;28;20121;-76
2022/05/07 03:07:43;;;;;;;20.90;14.13;;;11.50;99.90;;;8.74;100.00;101199.19;5009673;28;20104;-76
2022/05/07 03:10:18;;;;;;;23.27;15.10;;;11.50;99.90;;;8.70;100.00;101197.81;5016596;28;20046;-76
2022/05/07 03:12:45;;;;;;;20.60;14.02;;;11.50;99.90;;;8.69;100.00;101203.38;5014650;28;20132;-76
2022/05/07 03:15:13;;;;;;;21.52;15.07;;;11.50;99.90;;;8.67;100.00;101202.69;5008660;28;20077;-76
2022/05/07 03:17:41;;;;;;;23.25;14.88;;;11.50;99.90;;;8.63;100.00;101198.59;4999590;28;20466;-76
2022/05/07 03:20:13;;;;;;;22.42;15.75;;;11.50;99.90;;;8.63;100.00;101201.28;4988935;28;20875;-76
2022/05/07 03:22:43;;;;;;;24.00;14.70;;;11.40;99.90;;;8.63;100.00;101198.59;5002509;28;20133;-76
2022/05/07 03:25:10;;;;;;;22.45;14.98;;;11.40;99.90;;;8.67;100.00;101202.69;5004424;28;20100;-76
2022/05/07 03:27:38;;;;;;;24.35;14.82;;;11.40;99.90;;;8.67;100.00;101197.25;4991672;28;20373;-76
2022/05/07 03:30:11;;;;;;;21.02;14.52;;;11.40;99.90;;;8.65;100.00;101193.84;4999579;28;20580;-77
2022/05/07 03:32:54;;;;;;;21.75;15.02;;;11.40;99.90;;;8.63;100.00;101196.72;5003202;28;20058;-76
2022/05/07 03:35:21;;;;;;;23.40;15.77;;;11.40;99.90;;;8.60;100.00;101192.47;4997428;28;20398;-76
2022/05/07 03:37:48;;;;;;;23.50;15.40;;;11.40;99.90;;;8.63;100.00;101194.00;5002656;28;20761;-76
2022/05/07 03:40:16;;;;;;;20.63;14.85;;;11.30;99.90;;;8.58;100.00;101194.44;5007088;28;20498;-76
2022/05/07 03:42:45;;;;;;;23.88;15.15;;;11.30;99.90;;;8.54;100.00;101190.34;5004506;28;20050;-76
2022/05/07 03:45:13;;;;;;;22.35;15.18;;;11.30;99.90;;;8.53;100.00;101185.94;5008015;28;20088;-76
2022/05/07 03:47:43;;;;;;;24.85;15.00;;;11.30;99.90;;;8.60;100.00;101189.75;5004096;28;20824;-76
2022/05/07 03:50:13;;;;;;;22.05;14.95;;;11.60;99.90;;;8.57;100.00;101197.34;4988831;28;20054;-76
2022/05/07 03:55:26;;;;;;;23.67;14.85;;;11.30;99.90;;;8.55;100.00;101192.06;5024646;28;20458;-76
2022/05/07 03:57:54;;;;;;;21.30;13.82;;;11.30;99.90;;;8.55;100.00;101189.34;5012190;28;20050;-76
2022/05/07 04:00:28;;;;;;;19.88;13.73;;;11.30;99.90;;;8.55;100.00;101189.34;5006469;28;20081;-76
2022/05/07 04:02:57;;;;;;;22.02;14.20;;;11.30;99.90;;;8.53;100.00;101194.06;4999042;28;20053;-76
2022/05/07 04:05:42;;;;;;;20.73;14.25;;;11.20;99.90;;;8.60;100.00;101191.59;5008792;28;20050;-76
2022/05/07 04:08:14;;;;;;;21.70;14.77;;;11.30;99.90;;;8.58;100.00;101193.59;5019596;28;20112;-76
2022/05/07 04:10:43;;;;;;;22.73;15.02;;;11.20;99.90;;;8.64;100.00;101195.69;5011160;28;20045;-76
2022/05/07 04:13:15;;;;;;;23.65;15.45;;;11.30;99.90;;;8.75;100.00;101189.19;5015654;28;20049;-76
2022/05/07 04:15:45;;;;;;;25.05;15.55;;;11.30;99.90;;;8.72;100.00;101197.63;4998584;28;20690;-77
2022/05/07 04:18:13;;;;;;;24.13;14.55;;;11.30;99.90;;;8.76;100.00;101199.03;4991661;28;20056;-76
2022/05/07 04:20:43;;;;;;;22.67;15.35;;;11.30;99.90;;;8.80;100.00;101203.16;5005961;28;20096;-76
2022/05/07 04:23:14;;;;;;;22.50;14.65;;;11.30;99.90;;;8.88;100.00;101205.06;5008414;28;20052;-76
2022/05/07 04:25:45;;;;;;;22.55;15.18;;;11.50;99.90;;;8.94;100.00;101199.84;5005985;28;20050;-76
2022/05/07 04:28:16;;;;;;;21.85;14.65;;;11.40;99.90;;;8.99;100.00;101204.84;5011291;28;20522;-76
2022/05/07 04:30:46;;;;;;;20.70;14.50;;;11.50;99.90;;;9.07;100.00;101195.91;5009314;28;20050;-76
2022/05/07 04:33:17;;;;;;;20.48;13.82;;;11.50;99.90;;;9.14;100.00;101191.53;5025091;28;20129;-76
2022/05/07 04:35:48;;;;;;;20.85;13.73;;;11.50;99.90;;;9.16;100.00;101197.66;5002805;28;20045;-76
2022/05/07 04:38:17;;;;;;;23.55;15.13;;;11.60;99.90;;;9.24;100.00;101197.72;5025541;28;20052;-76
2022/05/07 04:40:46;;;;;;;23.52;15.98;;;11.60;99.90;;;9.22;100.00;101196.19;4992860;28;20050;-77
2022/05/07 04:43:21;;;;;;;24.15;15.38;;;11.60;99.90;;;9.29;100.00;101198.09;5008543;28;20137;-76
2022/05/07 04:45:48;;;;;;;21.55;14.77;;;11.70;99.90;;;9.41;100.00;101201.41;5003876;28;20046;-76
2022/05/07 04:48:18;;;;;;;24.70;15.98;;;11.70;99.90;;;9.48;100.00;101202.47;5008378;28;20070;-77
2022/05/07 04:50:47;;;;;;;23.02;15.57;;;11.80;99.90;;;9.52;100.00;101197.53;5015762;28;20046;-76
2022/05/07 04:53:27;;;;;;;24.13;15.57;;;11.80;99.90;;;9.60;100.00;101197.59;5015883;28;20070;-77
2022/05/07 04:55:58;;;;;;;23.25;15.68;;;11.90;99.90;;;9.71;100.00;101207.31;5008688;28;20054;-77
2022/05/07 04:58:26;;;;;;;22.08;15.52;;;11.90;99.90;;;9.70;100.00;101206.47;5004503;28;20465;-77
2022/05/07 05:00:53;;;;;;;21.50;15.27;;;12.00;99.90;;;9.75;100.00;101208.72;5026714;28;20136;-77
2022/05/07 05:03:24;;;;;;;24.98;16.75;;;12.00;99.90;;;9.87;100.00;101212.00;4999507;28;20046;-77
2022/05/07 05:06:13;;;;;;;23.88;16.13;;;12.10;99.90;;;9.98;100.00;101203.56;4992028;28;20050;-76
2022/05/07 05:09:00;;;;;;;22.77;15.32;;;12.20;99.90;;;10.11;100.00;101208.50;5004702;28;20049;-76
2022/05/07 05:11:27;;;;;;;25.17;16.20;;;12.20;99.90;;;10.16;100.00;101209.72;5015334;28;20042;-77
2022/05/07 05:13:55;;;;;;;27.88;16.92;;;12.30;99.90;;;10.23;100.00;101211.81;5003545;28;20140;-77
2022/05/07 05:16:23;;;;;;;28.52;15.98;;;12.40;99.90;;;10.24;100.00;101213.50;5005982;28;20134;-76
2022/05/07 05:18:56;;;;;;;25.05;15.60;;;12.40;99.90;;;10.30;100.00;101207.38;5007433;28;20441;-76
2022/05/07 05:21:24;;;;;;;25.98;15.35;;;12.50;99.90;;;10.42;100.00;101211.56;5026152;28;20084;-76
2022/05/07 05:24:08;;;;;;;25.23;16.02;;;12.50;99.90;;;10.60;100.00;101216.84;5010194;28;20049;-77
2022/05/07 05:26:37;;;;;;;22.17;14.68;;;12.60;99.90;;;10.59;100.00;101214.31;5006959;28;20422;-77
2022/05/07 05:29:08;;;;;;;24.25;16.25;;;12.70;99.90;;;10.69;100.00;101212.28;5022618;28;20054;-76
2022/05/07 05:31:36;;;;;;;24.98;15.88;;;12.70;99.90;;;10.75;100.00;101222.50;5019093;28;20046;-76
2022/05/07 05:34:12;;;;;;;24.10;16.73;;;12.80;99.90;;;10.88;100.00;101217.41;5003001;28;20093;-77
2022/05/07 05:36:48;;;;;;;27.65;15.70;;;13.00;99.90;;;11.04;100.00;101226.59;5011566;28;20042;-76
2022/05/07 05:39:16;;;;;;;25.67;16.23;;;13.00;99.90;;;11.22;100.00;101224.53;5006506;28;20092;-76
2022/05/07 05:41:45;;;;;;;21.75;15.43;;;13.10;99.90;;;11.52;100.00;101230.31;5013857;28;20518;-76
2022/05/07 05:44:14;;;;;;;24.02;16.20;;;13.20;99.90;;;11.70;100.00;101225.47;5025343;28;20521;-76
2022/05/07 05:46:41;;;;;;;22.05;16.00;;;13.40;99.90;;;11.85;100.00;101231.06;4996681;28;20042;-76
2022/05/07 05:49:09;;;;;;;27.08;17.00;;;13.50;99.90;;;12.01;100.00;101229.34;5009578;28;20129;-76
2022/05/07 05:51:38;;;;;;;40.97;19.58;;;13.70;99.90;;;12.17;100.00;101232.00;5009650;28;20049;-76
2022/05/07 05:54:07;;;;;;;34.78;21.90;;;13.80;99.90;;;12.51;100.00;101226.19;5009633;28;20057;-76
2022/05/07 05:56:35;;;;;;;32.95;21.55;;;13.90;99.90;;;12.85;100.00;101224.94;5025941;28;20044;-76
2022/05/07 05:59:03;;;;;;;37.22;24.48;;;14.10;99.90;;;12.84;100.00;101228.69;5024439;28;20046;-76
2022/05/07 06:01:44;;;;;;;37.78;23.80;;;14.30;99.90;;;13.16;100.00;101229.47;5001966;28;20048;-76
2022/05/07 06:04:16;;;;;;;35.53;23.30;;;14.40;99.90;;;13.21;100.00;101223.44;5025966;28;20077;-76
2022/05/07 06:06:44;;;;;;;41.15;26.60;;;14.60;99.90;;;13.41;100.00;101223.81;5025965;28;20061;-76
2022/05/07 06:09:14;;;;;;;40.17;25.80;;;14.70;99.90;;;13.60;100.00;101226.00;5009286;28;20049;-76
2022/05/07 06:11:43;;;;;;;43.58;27.05;;;14.90;99.90;;;13.83;100.00;101219.59;5026036;28;20132;-76
2022/05/07 06:14:11;;;;;;;42.42;27.33;;;15.10;99.90;;;13.95;100.00;101226.28;5009391;28;20050;-76
2022/05/07 06:16:38;;;;;;;40.30;26.85;;;15.30;99.90;;;14.04;100.00;101233.38;5009535;28;20138;-76
2022/05/07 06:19:11;;;;;;;38.85;26.65;;;15.40;99.90;;;14.18;100.00;101228.91;5023827;28;20050;-76
2022/05/07 06:21:41;;;;;;;41.33;26.75;;;15.60;99.90;;;14.46;98.62;101226.31;5017900;28;20506;-76
2022/05/07 06:29:41;;;;;;;37.35;24.33;;;16.50;97.40;;;15.45;91.84;101230.25;5024384;28;20153;-77
2022/05/07 06:32:11;;;;;;;38.67;25.75;;;16.70;97.00;;;15.51;89.94;101229.44;5009101;28;20053;-76
2022/05/07 06:34:38;;;;;;;36.83;24.95;;;16.90;95.90;;;15.74;88.56;101233.84;5007218;28;20137;-76
2022/05/07 06:37:06;;;;;;;38.40;24.92;;;17.10;94.80;;;16.05;86.03;101233.44;5017253;28;20076;-76
2022/05/07 06:39:36;;;;;;;34.42;23.65;;;17.20;94.20;;;15.80;87.24;101233.91;5025126;28;20054;-77
2022/05/07 06:42:06;;;;;;;35.33;23.23;;;17.30;93.90;;;15.75;87.29;101238.31;5010172;28;20045;-77
2022/05/07 06:44:33;;;;;;;35.77;23.70;;;17.30;94.30;;;15.87;87.51;101238.59;5025460;28;20058;-77
2022/05/07 06:47:04;;;;;;;37.43;24.30;;;17.30;94.00;;;15.94;88.65;101234.84;5025489;28;20042;-77
2022/05/07 06:49:32;;;;;;;34.60;23.48;;;17.40;94.80;;;16.19;87.43;101237.06;5008649;28;20482;-77
2022/05/07 06:51:59;;;;;;;35.78;23.40;;;17.40;94.50;;;16.52;85.04;101228.13;5024009;28;20037;-77
2022/05/07 06:54:26;;;;;;;37.45;23.75;;;17.60;93.40;;;16.68;84.16;101235.13;5009863;28;20069;-77
2022/05/07 06:56:53;;;;;;;30.80;22.10;;;17.70;93.40;;;16.75;83.48;101236.88;5008829;28;20057;-78
2022/05/07 06:59:22;;;;;;;36.00;23.77;;;17.80;93.20;;;16.71;82.60;101231.97;5006485;28;20046;-77
2022/05/07 07:01:49;;;;;;;35.22;23.08;;;17.80;92.30;;;16.55;81.98;101233.22;4990201;28;20053;-77
2022/05/07 07:04:16;;;;;;;38.42;23.90;;;17.90;91.60;;;16.50;81.86;101238.47;4998648;28;20128;-77
2022/05/07 07:06:43;;;;;;;33.65;23.27;;;17.90;90.90;;;16.62;83.00;101231.34;5003882;28;20413;-82
2022/05/07 07:09:10;;;;;;;35.92;24.10;;;18.00;91.60;;;16.58;84.12;101224.53;5001201;28;20044;-77
2022/05/07 07:11:38;;;;;;;37.80;22.50;;;18.00;91.70;;;16.93;82.23;101238.19;5006901;28;20042;-76
2022/05/07 07:14:05;;;;;;;34.75;22.60;;;18.10;91.10;;;17.14;81.22;101240.75;5007877;28;20042;-77
2022/05/07 07:16:34;;;;;;;33.55;20.80;;;18.30;91.80;;;17.13;81.47;101233.53;5005257;28;20129;-77
2022/05/07 07:19:01;;;;;;;30.52;20.92;;;18.30;91.20;;;17.25;80.47;101236.53;4991945;28;20137;-77
2022/05/07 07:21:28;;;;;;;34.05;23.13;;;18.40;90.90;;;17.46;79.56;101238.22;5002072;28;20077;-78
2022/05/07 07:23:57;;;;;;;34.47;21.10;;;18.50;91.20;;;17.61;78.85;101238.00;5008103;28;20033;-78
2022/05/07 07:26:24;;;;;;;34.28;20.77;;;18.60;90.30;;;17.69;78.18;101236.94;5009454;28;20450;-77
2022/05/07 07:28:52;;;;;;;36.20;21.52;;;18.70;90.20;;;17.83;78.83;101238.59;4996940;28;20050;-77
2022/05/07 07:31:19;;;;;;;37.10;21.77;;;18.80;91.10;;;18.04;78.93;101234.75;5009628;28;20042;-77
2022/05/07 07:33:47;;;;;;;31.02;19.65;;;18.90;91.30;;;18.24;78.13;101240.22;5005920;28;20034;-77
2022/05/07 07:36:15;;;;;;;36.42;20.80;;;19.00;91.40;;;18.41;77.56;101234.19;4998634;28;20057;-77
2022/05/07 07:38:42;;;;;;;34.72;21.38;;;19.10;90.90;;;18.57;75.37;101233.69;4994661;28;20046;-77
2022/05/07 07:41:09;;;;;;;40.00;21.45;;;19.20;90.10;;;18.71;74.05;101234.47;5009932;28;20038;-78
2022/05/07 07:43:39;;;;;;;36.30;19.92;;;19.30;89.30;;;18.85;74.64;101232.50;5008008;28;20489;-76
2022/05/07 07:48:53;;;;;;;34.75;19.23;;;19.60;88.90;;;19.19;71.84;101230.34;5009860;28;20058;-79
2022/05/07 07:51:20;;;;;;;30.02;19.05;;;19.70;88.90;;;19.23;72.07;101232.44;5008567;28;20054;-77
2022/05/07 07:53:47;;;;;;;32.85;20.15;;;19.80;88.20;;;19.25;71.95;101229.47;5007619;28;20033;-76
2022/05/07 07:56:16;;;;;;;35.42;20.38;;;19.80;88.00;;;19.22;70.59;101236.25;5012082;28;20069;-77
2022/05/07 07:58:43;;;;;;;31.77;20.00;;;20.00;87.10;;;19.35;71.59;101229.78;5004689;28;20104;-76
2022/05/07 08:01:10;;;;;;;30.08;18.30;;;20.00;86.70;;;19.47;70.79;101238.19;5013174;28;20042;-77
2022/05/07 08:03:37;;;;;;;31.23;19.20;;;20.10;86.90;;;19.51;71.81;101239.41;5013153;28;20046;-77
2022/05/07 08:06:06;;;;;;;27.38;17.77;;;20.10;87.60;;;19.56;71.34;101239.59;5012620;28;20120;-78
2022/05/07 08:16:29;;;;;;;52.67;26.33;;;20.10;84.20;;;17.30;78.76;101244.16;5036713;22;20052;-88
2022/05/07 08:18:57;;;;;;;42.28;23.45;;;19.70;86.30;;;16.71;80.85;101246.56;5030816;28;20452;-92
2022/05/07 08:21:30;;;;;;;60.00;29.13;;;19.40;86.60;;;16.29;83.45;101248.53;5031948;28;20046;-93
2022/05/07 08:23:57;;;;;;;44.38;25.17;;;19.10;87.40;;;15.94;86.43;101242.22;5048451;28;20045;-92
2022/05/07 08:26:36;;;;;;;42.58;22.58;;;18.90;88.70;;;15.72;88.11;101244.16;5028388;28;20045;-93
2022/05/07 08:29:08;;;;;;;34.97;22.60;;;18.70;89.60;;;15.60;90.54;101254.84;5014286;28;20053;-90
2022/05/07 08:31:35;;;;;;;39.90;23.30;;;18.50;91.10;;;15.48;91.51;101257.28;5011755;28;20418;-93
2022/05/07 08:34:03;;;;;;;38.08;22.75;;;18.30;91.20;;;15.30;91.73;101254.19;5011876;28;20137;-90
2022/05/07 08:36:31;;;;;;;39.08;23.52;;;18.10;91.40;;;15.40;92.37;101255.53;5033912;23;20056;-91
2022/05/07 08:38:59;;;;;;;33.97;22.45;;;18.00;92.50;;;15.49;91.70;101256.22;5031044;28;20567;-91
2022/05/07 08:41:27;;;;;;;35.70;23.60;;;17.90;92.50;;;15.44;92.20;101250.50;5029599;28;20378;-91
2022/05/07 08:43:54;;;;;;;35.22;23.70;;;17.90;93.00;;;15.44;94.10;101245.03;5012743;28;20073;-91
2022/05/07 08:46:22;;;;;;;36.38;22.77;;;17.90;93.80;;;15.44;94.86;101253.25;5011925;28;20411;-91
2022/05/07 08:48:50;;;;;;;36.10;23.05;;;17.90;94.00;;;15.47;95.89;101254.75;4993745;28;20105;-92
2022/05/07 08:51:21;;;;;;;40.15;25.63;;;17.90;94.50;;;15.55;95.38;101244.44;4993485;28;20046;-91
2022/05/07 08:53:53;;;;;;;37.97;25.58;;;17.90;94.70;;;15.44;97.09;101245.88;4993861;28;20132;-92
2022/05/07 08:56:22;;;;;;;37.40;23.92;;;18.00;94.80;;;15.45;95.80;101252.19;4994063;28;20113;-92
2022/05/07 08:58:50;;;;;;;36.58;23.05;;;18.00;94.50;;;15.62;93.39;101248.09;5009911;28;20077;-91
2022/05/07 09:01:18;;;;;;;40.78;23.30;;;18.00;93.70;;;15.77;91.74;101249.94;4994282;28;20042;-90
2022/05/07 09:03:49;;;;;;;41.92;24.75;;;18.10;92.80;;;15.76;90.96;101248.22;4993507;28;20082;-93
2022/05/07 09:06:22;;;;;;;36.17;23.67;;;18.10;92.60;;;15.62;92.55;101248.09;4994214;28;20047;-91
2022/05/07 09:08:52;;;;;;;36.13;22.60;;;18.00;92.80;;;15.67;91.34;101252.13;4994336;28;20499;-91
2022/05/07 09:11:21;;;;;;;38.72;25.00;;;18.10;92.70;;;15.53;92.09;101251.19;4994400;28;20050;-90
2022/05/07 09:13:59;;;;;;;39.20;24.25;;;18.10;92.80;;;15.52;95.89;101253.09;4994852;28;20137;-91
2022/05/07 09:16:40;;;;;;;42.03;23.77;;;18.00;93.80;;;15.67;94.93;101249.38;4993245;28;20042;-91
2022/05/07 09:19:21;;;;;;;;;;;18.10;93.60;;;15.59;94.60;101250.38;4988540;28;20050;-88
2022/05/07 09:21:49;;;;;;;37.33;23.55;;;18.10;93.70;;;15.71;93.47;101261.69;5005199;28;19929;-90
2022/05/07 09:24:19;;;;;;;37.58;24.02;;;18.10;93.20;;;15.67;94.60;101257.63;4990236;28;20038;-90
2022/05/07 09:26:47;;;;;;;32.97;20.33;;;18.20;93.70;;;15.52;94.41;101252.25;4993162;28;20463;-84
2022/05/07 09:29:16;;;;;;;29.55;19.33;;;18.10;93.30;;;15.48;94.92;101259.16;4989026;28;20049;-89
2022/05/07 09:31:45;;;;;;;29.60;20.08;;;18.10;93.80;;;15.53;94.85;101253.94;4988814;28;20352;-87
2022/05/07 09:37:00;;;;;;;31.40;17.90;;;17.90;94.00;;;15.66;93.56;101258.69;4991325;28;20081;-87
2022/05/07 09:39:36;;;;;;;31.00;18.98;;;17.90;93.90;;;15.61;92.74;101257.41;4986885;28;20780;-88
2022/05/07 09:42:04;;;;;;;30.90;18.38;;;17.90;93.50;;;15.53;93.86;101251.19;4987007;28;20043;-87
2022/05/07 09:44:31;;;;;;;36.90;21.65;;;17.90;93.60;;;15.49;93.82;101253.50;4990771;28;20038;-85
2022/05/07 09:47:05;;;;;;;29.90;19.40;;;17.90;94.00;;;15.50;94.39;101246.09;4993371;28;20546;-89
2022/05/07 09:49:34;;;;;;;36.30;22.95;;;17.90;94.20;;;15.75;91.02;101252.03;4991233;28;20125;-86
2022/05/07 09:52:05;;;;;;;34.85;22.58;;;17.90;93.20;;;15.74;91.85;101248.41;5009854;28;20233;-86
2022/05/07 09:57:31;;;;;;;31.75;20.67;;;17.90;93.20;;;15.68;91.76;101245.63;4991048;28;20038;-86
2022/05/07 10:00:07;;;;;;;36.65;19.77;;;17.90;93.20;;;15.49;92.52;101237.03;4993411;28;20129;-86
2022/05/07 10:03:06;;;;;;;27.38;17.25;;;18.00;93.40;;;15.50;92.75;101248.84;4991228;28;20046;-86
2022/05/07 10:05:52;;;;;;;31.67;18.73;;;17.90;93.70;;;16.11;88.96;101248.25;4991297;28;20126;-86
2022/05/07 10:08:50;;;;;;;38.72;22.58;;;18.00;92.60;;;16.02;88.25;101248.38;4984645;28;20483;-85
2022/05/07 10:11:19;;;;;;;40.83;23.70;;;18.00;92.50;;;15.92;89.24;101247.91;4986654;28;20112;-86
2022/05/07 10:13:58;;;;;;;39.63;22.80;;;18.10;92.70;;;15.69;90.48;101242.69;4992557;28;20046;-86
2022/05/07 10:16:30;;;;;;;31.70;18.67;;;18.00;92.70;;;15.58;91.26;101246.81;4970248;28;20050;-86
2022/05/07 10:18:57;;;;;;;27.05;17.30;;;17.90;93.00;;;15.57;91.85;101242.38;4995529;28;20533;-84
2022/05/07 10:21:25;;;;;;;35.47;17.33;;;17.90;93.00;;;15.53;92.13;101243.81;4991539;28;20069;-86
2022/05/07 10:23:54;;;;;;;26.33;15.70;;;17.90;93.40;;;15.50;92.78;101238.75;4991278;28;20069;-86
2022/05/07 10:26:24;;;;;;;28.50;17.27;;;17.90;93.40;;;15.69;90.39;101236.31;4989762;28;20045;-89
2022/05/07 10:28:52;;;;;;;28.35;18.20;;;17.90;93.00;;;15.70;90.99;101227.88;4995942;28;20046;-88
2022/05/07 10:31:23;;;;;;;28.38;18.38;;;17.90;93.00;;;15.70;91.32;101229.78;4992391;28;20282;-88
2022/05/07 10:33:51;;;;;;;30.40;18.48;;;18.00;93.20;;;15.68;91.62;101223.66;4988846;28;20104;-89
2022/05/07 10:36:20;;;;;;;29.52;17.20;;;18.00;93.20;;;15.66;92.15;101231.25;4989578;28;20050;-90
2022/05/07 10:38:47;;;;;;;24.00;15.32;;;18.10;93.30;;;15.66;92.12;101220.28;4983436;28;20056;-88
2022/05/07 10:41:24;;;;;;;35.88;20.60;;;18.10;93.00;;;15.63;91.79;101222.38;4988624;28;20061;-89